Time;durP1;ratioP1;P1;durP2;ratioP2;P2;SDS_P1;SDS_P2;PMS_P1;PMS_P2;Temp;Humidity;BMP_temperature;BMP_pressure;BME280_temperature;BME280_humidity;BME280_pressure;Samples;Min_cycle;Max_cycle;Signal;HPM_P1;HPM_P2
2022/03/14 00:02:05;;;;;;;9.88;6.20;;;;;;;;;;5034325;28;20028;-58
2022/03/14 00:04:37;;;;;;;11.20;6.85;;;;;;;;;;5034379;28;20026;-60
2022/03/14 00:07:03;;;;;;;;;;;;;;;;;;5034768;28;20114;-59
2022/03/14 00:09:30;;;;;;;13.35;7.43;;;;;;;;;;5034251;28;20001;-60
2022/03/14 00:11:57;;;;;;;11.43;6.47;;;;;;;;;;5034192;28;20099;-59
2022/03/14 00:14:25;;;;;;;11.10;6.85;;;;;;;;;;5034158;28;20033;-59
2022/03/14 00:16:52;;;;;;;10.98;6.68;;;;;;;;;;5034258;28;20021;-65
2022/03/14 00:19:20;;;;;;;10.75;7.03;;;;;;;;;;5034174;28;20036;-63
2022/03/14 00:21:46;;;;;;;11.35;6.82;;;;;;;;;;5034038;28;20448;-62
2022/03/14 00:24:13;;;;;;;13.02;7.20;;;;;;;;;;5033740;28;20052;-60
2022/03/14 00:26:39;;;;;;;12.23;7.05;;;;;;;;;;5033935;28;20014;-60
2022/03/14 00:29:09;;;;;;;12.05;8.20;;;;;;;;;;5033949;28;20036;-65
2022/03/14 00:31:36;;;;;;;10.48;6.50;;;;;;;;;;5033702;28;20017;-60
2022/03/14 00:34:02;;;;;;;11.90;7.50;;;;;;;;;;5033762;28;20232;-65
2022/03/14 00:36:28;;;;;;;11.52;7.38;;;;;;;;;;5033775;28;20056;-61
2022/03/14 00:38:55;;;;;;;14.57;7.60;;;;;;;;;;5033717;28;20029;-63
2022/03/14 00:41:21;;;;;;;11.38;6.75;;;;;;;;;;5033665;28;20088;-62
2022/03/14 00:43:47;;;;;;;12.23;7.53;;;;;;;;;;5033721;28;20370;-61
2022/03/14 00:46:17;;;;;;;12.68;6.90;;;;;;;;;;5033505;28;20045;-64
2022/03/14 00:48:44;;;;;;;13.55;8.13;;;;;;;;;;5033717;28;20033;-60
2022/03/14 00:51:10;;;;;;;12.60;7.43;;;;;;;;;;5048834;28;20388;-65
2022/03/14 00:53:37;;;;;;;11.50;7.78;;;;;;;;;;5034002;28;20041;-61
2022/03/14 00:56:04;;;;;;;14.95;8.55;;;;;;;;;;5032895;28;20050;-63
2022/03/14 00:58:30;;;;;;;12.48;7.78;;;;;;;;;;5032955;28;20497;-61
2022/03/14 01:00:56;;;;;;;12.98;6.88;;;;;;;;;;5033193;28;20032;-65
2022/03/14 01:03:22;;;;;;;12.75;7.57;;;;;;;;;;5033367;28;20025;-61
2022/03/14 01:05:48;;;;;;;12.65;7.70;;;;;;;;;;5033283;28;20026;-63
2022/03/14 01:08:14;;;;;;;13.07;7.40;;;;;;;;;;5033402;28;20022;-65
2022/03/14 01:10:41;;;;;;;15.38;7.82;;;;;;;;;;5033066;28;20543;-64
2022/03/14 01:13:11;;;;;;;12.40;7.05;;;;;;;;;;5032962;28;20536;-64
2022/03/14 01:15:37;;;;;;;13.82;8.02;;;;;;;;;;5033276;28;20060;-63
2022/03/14 01:18:05;;;;;;;12.25;7.22;;;;;;;;;;5032911;28;20097;-65
2022/03/14 01:20:31;;;;;;;13.88;7.65;;;;;;;;;;5033282;28;20052;-63
2022/03/14 01:22:57;;;;;;;11.65;6.72;;;;;;;;;;5032957;28;20045;-65
2022/03/14 01:25:27;;;;;;;12.05;7.70;;;;;;;;;;5032752;28;20447;-64
2022/03/14 01:27:54;;;;;;;11.02;7.22;;;;;;;;;;5032906;28;20036;-60
2022/03/14 01:30:21;;;;;;;15.75;8.55;;;;;;;;;;5033016;28;20025;-62
2022/03/14 01:32:47;;;;;;;16.00;8.40;;;;;;;;;;5032815;28;20114;-59
2022/03/14 01:35:13;;;;;;;12.70;7.93;;;;;;;;;;5032425;28;20029;-59
2022/03/14 01:37:39;;;;;;;13.68;7.65;;;;;;;;;;5031737;28;20021;-60
2022/03/14 01:40:09;;;;;;;13.27;8.30;;;;;;;;;;5032732;28;20384;-62
2022/03/14 01:42:36;;;;;;;11.45;7.40;;;;;;;;;;5032649;28;20051;-61
2022/03/14 01:45:03;;;;;;;10.80;7.00;;;;;;;;;;5032155;28;20021;-60
2022/03/14 01:47:30;;;;;;;12.60;7.90;;;;;;;;;;5032370;28;20032;-62
2022/03/14 01:49:56;;;;;;;12.15;7.30;;;;;;;;;;5032718;28;20479;-60
2022/03/14 01:52:22;;;;;;;13.88;8.30;;;;;;;;;;5047725;28;20021;-63
2022/03/14 01:54:48;;;;;;;11.38;7.47;;;;;;;;;;5031990;28;20061;-61
2022/03/14 01:57:15;;;;;;;13.50;8.57;;;;;;;;;;5031707;28;20541;-64
2022/03/14 01:59:41;;;;;;;11.77;7.75;;;;;;;;;;5032497;28;20032;-64
2022/03/14 02:02:07;;;;;;;11.45;7.75;;;;;;;;;;5032336;28;20376;-64
2022/03/14 02:04:35;;;;;;;13.65;8.55;;;;;;;;;;5032099;28;20026;-63
2022/03/14 02:07:01;;;;;;;11.10;7.70;;;;;;;;;;5031940;28;20104;-65
2022/03/14 02:09:27;;;;;;;13.05;8.15;;;;;;;;;;5048631;28;20025;-62
2022/03/14 02:11:56;;;;;;;10.88;7.05;;;;;;;;;;5067649;28;20028;-63
2022/03/14 02:14:25;;;;;;;14.57;8.32;;;;;;;;;;5051903;28;20057;-59
2022/03/14 02:16:52;;;;;;;10.82;7.43;;;;;;;;;;5041466;28;20520;-61
2022/03/14 02:19:20;;;;;;;11.88;7.88;;;;;;;;;;5031830;28;20148;-61
2022/03/14 02:21:46;;;;;;;14.45;8.00;;;;;;;;;;5031962;28;20033;-61
2022/03/14 02:24:12;;;;;;;12.85;7.80;;;;;;;;;;5031678;28;20400;-58
2022/03/14 02:26:43;;;;;;;11.95;7.97;;;;;;;;;;5031796;28;20028;-60
2022/03/14 02:29:10;;;;;;;15.38;8.20;;;;;;;;;;5031634;28;20032;-59
2022/03/14 02:31:37;;;;;;;10.55;7.05;;;;;;;;;;5031881;28;20043;-65
2022/03/14 02:34:07;;;;;;;13.65;8.07;;;;;;;;;;5031862;28;20463;-61
2022/03/14 02:36:38;;;;;;;13.70;8.93;;;;;;;;;;5031691;28;20017;-61
2022/03/14 02:39:04;;;;;;;14.00;7.80;;;;;;;;;;5031618;28;20022;-62
2022/03/14 02:41:32;;;;;;;13.02;8.23;;;;;;;;;;5031616;28;20029;-59
2022/03/14 02:43:58;;;;;;;13.77;8.93;;;;;;;;;;5031834;28;20045;-59
2022/03/14 02:46:25;;;;;;;12.60;7.43;;;;;;;;;;5031483;28;20017;-59
2022/03/14 02:48:51;;;;;;;13.20;8.23;;;;;;;;;;5036174;28;20090;-60
2022/03/14 02:51:17;;;;;;;15.13;8.98;;;;;;;;;;5038052;28;20022;-60
2022/03/14 02:53:43;;;;;;;13.27;7.97;;;;;;;;;;5038185;28;20444;-59
2022/03/14 02:56:09;;;;;;;12.52;8.00;;;;;;;;;;5038023;28;20085;-64
2022/03/14 02:58:38;;;;;;;14.10;9.20;;;;;;;;;;5051936;28;20021;-59
2022/03/14 03:01:04;;;;;;;12.57;8.55;;;;;;;;;;5057870;28;20021;-62
2022/03/14 03:03:30;;;;;;;13.63;8.80;;;;;;;;;;5058103;28;20476;-63
2022/03/14 03:05:56;;;;;;;12.13;8.15;;;;;;;;;;5058060;28;20029;-59
2022/03/14 03:08:22;;;;;;;13.98;9.18;;;;;;;;;;5058159;28;20021;-62
2022/03/14 03:10:49;;;;;;;12.25;7.75;;;;;;;;;;5057990;28;20523;-59
2022/03/14 03:13:16;;;;;;;12.10;8.05;;;;;;;;;;5057831;28;20029;-61
2022/03/14 03:15:42;;;;;;;13.05;7.88;;;;;;;;;;5057554;28;20033;-59
2022/03/14 03:18:13;;;;;;;12.48;8.25;;;;;;;;;;5037983;28;20079;-59
2022/03/14 03:20:39;;;;;;;13.88;8.52;;;;;;;;;;5038016;28;20381;-59
2022/03/14 03:23:05;;;;;;;12.93;8.52;;;;;;;;;;5037546;28;20808;-62
2022/03/14 03:25:31;;;;;;;11.70;7.68;;;;;;;;;;5037962;28;20026;-60
2022/03/14 03:27:57;;;;;;;12.57;8.23;;;;;;;;;;5037800;28;20028;-62
2022/03/14 03:30:24;;;;;;;13.02;8.65;;;;;;;;;;5038132;28;20025;-59
2022/03/14 03:32:50;;;;;;;14.40;8.82;;;;;;;;;;5037736;28;20024;-59
2022/03/14 03:35:16;;;;;;;12.77;8.68;;;;;;;;;;5037614;28;20069;-59
2022/03/14 03:37:42;;;;;;;13.30;8.32;;;;;;;;;;5038030;28;20045;-63
2022/03/14 03:40:08;;;;;;;14.05;8.88;;;;;;;;;;5037901;28;20350;-63
2022/03/14 03:42:35;;;;;;;14.10;9.07;;;;;;;;;;5037456;28;20037;-60
2022/03/14 03:45:01;;;;;;;18.13;8.90;;;;;;;;;;5037576;28;20018;-59
2022/03/14 03:47:27;;;;;;;13.38;8.43;;;;;;;;;;5036452;28;20484;-59
2022/03/14 03:49:53;;;;;;;12.77;8.73;;;;;;;;;;5037604;28;20025;-61
2022/03/14 03:52:19;;;;;;;16.45;9.43;;;;;;;;;;5037298;28;20021;-59
2022/03/14 03:54:45;;;;;;;14.05;9.32;;;;;;;;;;5037476;28;20510;-61
2022/03/14 03:57:12;;;;;;;14.32;9.27;;;;;;;;;;5037114;28;20049;-60
2022/03/14 03:59:39;;;;;;;14.18;9.07;;;;;;;;;;5035154;28;20053;-59
2022/03/14 04:02:06;;;;;;;14.20;9.20;;;;;;;;;;5034210;28;20022;-60
2022/03/14 04:04:35;;;;;;;15.45;9.30;;;;;;;;;;5034454;28;20528;-61
2022/03/14 04:07:02;;;;;;;15.25;9.05;;;;;;;;;;5033265;28;20361;-62
2022/03/14 04:09:29;;;;;;;14.07;9.10;;;;;;;;;;5034152;28;20021;-60
2022/03/14 04:11:55;;;;;;;13.43;9.25;;;;;;;;;;5034298;28;20472;-60
2022/03/14 04:14:21;;;;;;;15.23;9.05;;;;;;;;;;5034073;28;20377;-62
2022/03/14 04:16:48;;;;;;;16.02;9.38;;;;;;;;;;5034106;28;20495;-60
2022/03/14 04:19:16;;;;;;;16.08;9.80;;;;;;;;;;5034251;28;20556;-59
2022/03/14 04:21:48;;;;;;;13.10;8.23;;;;;;;;;;5034086;28;20026;-62
2022/03/14 04:24:15;;;;;;;15.23;9.15;;;;;;;;;;5033948;28;20024;-60
2022/03/14 04:26:41;;;;;;;17.05;10.10;;;;;;;;;;5033788;28;20030;-60
2022/03/14 04:29:07;;;;;;;12.70;9.02;;;;;;;;;;5033621;28;20022;-62
2022/03/14 04:31:33;;;;;;;14.45;9.52;;;;;;;;;;5033672;28;20107;-60
2022/03/14 04:33:59;;;;;;;15.18;9.55;;;;;;;;;;5034047;28;20435;-63
2022/03/14 04:36:25;;;;;;;18.92;10.10;;;;;;;;;;5033716;28;20034;-61
2022/03/14 04:38:51;;;;;;;14.80;9.02;;;;;;;;;;5033849;28;20032;-61
2022/03/14 04:41:17;;;;;;;16.25;9.70;;;;;;;;;;5033642;28;20087;-61
2022/03/14 04:43:43;;;;;;;16.17;9.35;;;;;;;;;;5033544;28;20025;-60
2022/03/14 04:46:09;;;;;;;15.68;9.85;;;;;;;;;;5033591;28;20104;-60
2022/03/14 04:48:36;;;;;;;15.50;9.30;;;;;;;;;;5033556;28;20469;-59
2022/03/14 04:51:02;;;;;;;15.35;9.68;;;;;;;;;;5033671;28;20104;-63
2022/03/14 04:53:28;;;;;;;14.63;9.82;;;;;;;;;;5033652;28;20024;-60
2022/03/14 04:55:54;;;;;;;14.18;9.52;;;;;;;;;;5033572;28;20132;-60
2022/03/14 04:58:20;;;;;;;14.48;9.02;;;;;;;;;;5044970;28;20103;-61
2022/03/14 05:00:47;;;;;;;15.13;9.25;;;;;;;;;;5053202;28;20114;-59
2022/03/14 05:03:14;;;;;;;15.02;9.55;;;;;;;;;;5053125;28;20504;-60
2022/03/14 05:05:40;;;;;;;15.50;10.32;;;;;;;;;;5052951;28;20216;-65
2022/03/14 05:08:06;;;;;;;17.02;10.95;;;;;;;;;;5053360;28;20049;-65
2022/03/14 05:10:32;;;;;;;14.52;9.43;;;;;;;;;;5052909;28;20480;-60
2022/03/14 05:13:00;;;;;;;17.20;10.05;;;;;;;;;;5052864;28;20031;-60
2022/03/14 05:15:26;;;;;;;15.80;9.95;;;;;;;;;;5052992;28;20037;-60
2022/03/14 05:17:52;;;;;;;16.58;9.52;;;;;;;;;;5034567;28;20044;-59
2022/03/14 05:20:18;;;;;;;17.17;10.43;;;;;;;;;;5033262;28;20100;-61
2022/03/14 05:22:48;;;;;;;18.20;10.02;;;;;;;;;;5033148;28;20053;-64
2022/03/14 05:25:18;;;;;;;17.15;10.70;;;;;;;;;;5032565;28;20053;-65
2022/03/14 05:27:44;;;;;;;16.77;10.27;;;;;;;;;;5032841;28;20022;-64
2022/03/14 05:30:10;;;;;;;17.33;10.57;;;;;;;;;;5032690;28;20365;-64
2022/03/14 05:32:37;;;;;;;15.23;10.30;;;;;;;;;;5032758;28;20075;-64
2022/03/14 05:35:06;;;;;;;17.52;9.93;;;;;;;;;;5032686;28;20033;-63
2022/03/14 05:37:32;;;;;;;17.95;10.90;;;;;;;;;;5032952;28;20030;-65
2022/03/14 05:39:59;;;;;;;15.55;10.13;;;;;;;;;;5032620;28;20029;-64
2022/03/14 05:42:25;;;;;;;12.75;9.00;;;;;;;;;;5032669;28;20021;-65
2022/03/14 05:44:51;;;;;;;14.65;9.57;;;;;;;;;;5032583;28;20021;-63
2022/03/14 05:47:19;;;;;;;14.20;8.75;;;;;;;;;;5032325;28;20040;-63
2022/03/14 05:49:45;;;;;;;16.30;10.05;;;;;;;;;;5032439;28;20017;-60
2022/03/14 05:52:12;;;;;;;16.55;9.75;;;;;;;;;;5032435;28;20018;-65
2022/03/14 05:54:38;;;;;;;16.02;9.05;;;;;;;;;;5032064;28;20036;-61
2022/03/14 05:57:05;;;;;;;14.98;9.30;;;;;;;;;;5031925;28;20400;-64
2022/03/14 05:59:31;;;;;;;15.65;9.63;;;;;;;;;;5032401;28;20739;-63
2022/03/14 06:01:57;;;;;;;16.65;10.43;;;;;;;;;;5032331;28;20021;-61
2022/03/14 06:04:23;;;;;;;17.42;10.82;;;;;;;;;;5032209;28;20025;-60
2022/03/14 06:06:49;;;;;;;15.85;9.98;;;;;;;;;;5048852;28;20379;-64
2022/03/14 06:09:15;;;;;;;13.85;9.38;;;;;;;;;;5051926;28;20106;-60
2022/03/14 06:11:42;;;;;;;16.02;9.65;;;;;;;;;;5052228;28;20429;-60
2022/03/14 06:14:08;;;;;;;16.00;10.25;;;;;;;;;;5052065;28;20040;-61
2022/03/14 06:16:34;;;;;;;17.17;10.20;;;;;;;;;;5051763;28;20074;-65
2022/03/14 06:19:00;;;;;;;15.23;9.23;;;;;;;;;;5051827;28;20471;-65
2022/03/14 06:21:27;;;;;;;16.98;9.80;;;;;;;;;;5051846;28;20021;-65
2022/03/14 06:23:53;;;;;;;16.33;9.55;;;;;;;;;;5066767;28;20025;-61
2022/03/14 06:26:19;;;;;;;14.50;9.52;;;;;;;;;;5051871;28;20021;-62
2022/03/14 06:28:45;;;;;;;16.67;9.18;;;;;;;;;;5052173;28;20622;-62
2022/03/14 06:31:11;;;;;;;17.17;9.90;;;;;;;;;;5051764;28;20033;-61
2022/03/14 06:33:38;;;;;;;14.95;9.35;;;;;;;;;;5051904;28;20025;-64
2022/03/14 06:36:05;;;;;;;17.90;10.35;;;;;;;;;;5051786;28;20035;-63
2022/03/14 06:38:35;;;;;;;16.33;9.50;;;;;;;;;;5051718;28;20038;-66
2022/03/14 06:41:02;;;;;;;16.60;9.77;;;;;;;;;;5051675;28;20063;-66
2022/03/14 06:43:31;;;;;;;17.52;11.02;;;;;;;;;;5051581;28;20032;-65
2022/03/14 06:45:57;;;;;;;18.05;10.77;;;;;;;;;;5051653;28;20643;-66
2022/03/14 06:48:23;;;;;;;15.57;10.30;;;;;;;;;;5051578;28;20116;-65
2022/03/14 06:50:49;;;;;;;16.92;11.10;;;;;;;;;;5050236;28;20391;-66
2022/03/14 06:53:16;;;;;;;18.15;11.02;;;;;;;;;;5051604;28;20009;-61
2022/03/14 06:55:42;;;;;;;18.83;11.70;;;;;;;;;;5051484;28;20069;-65
2022/03/14 06:58:08;;;;;;;17.90;11.63;;;;;;;;;;5051795;28;20017;-64
2022/03/14 07:00:34;;;;;;;17.42;12.55;;;;;;;;;;5051548;28;20025;-65
2022/03/14 07:03:00;;;;;;;19.38;12.45;;;;;;;;;;5051445;28;20437;-62
2022/03/14 07:05:26;;;;;;;20.08;13.02;;;;;;;;;;5051842;28;20056;-65
2022/03/14 07:07:53;;;;;;;19.58;12.82;;;;;;;;;;5051589;28;20094;-65
2022/03/14 07:10:20;;;;;;;18.83;12.05;;;;;;;;;;5051370;28;20384;-61
2022/03/14 07:12:49;;;;;;;17.25;11.20;;;;;;;;;;5050981;28;20032;-63
2022/03/14 07:15:16;;;;;;;18.13;11.65;;;;;;;;;;5048664;28;20025;-63
2022/03/14 07:17:43;;;;;;;24.30;12.32;;;;;;;;;;5051194;28;20104;-65
2022/03/14 07:20:10;;;;;;;19.77;13.02;;;;;;;;;;5051493;28;20108;-65
2022/03/14 07:22:56;;;;;;;20.02;13.30;;;;;;;;;;5051201;28;20025;-67
2022/03/14 07:25:25;;;;;;;28.58;17.27;;;;;;;;;;5050884;28;20419;-67
2022/03/14 07:27:51;;;;;;;30.58;19.52;;;;;;;;;;5050670;28;20029;-66
2022/03/14 07:30:17;;;;;;;34.55;22.67;;;;;;;;;;5048956;28;20017;-67
2022/03/14 07:32:43;;;;;;;29.90;19.30;;;;;;;;;;5050640;28;20052;-67
2022/03/14 07:35:10;;;;;;;37.28;23.52;;;;;;;;;;5050987;28;20043;-66
2022/03/14 07:37:36;;;;;;;28.33;18.92;;;;;;;;;;5054557;28;20025;-66
2022/03/14 07:40:03;;;;;;;31.85;19.08;;;;;;;;;;5054947;28;20039;-66
2022/03/14 07:42:29;;;;;;;32.47;19.00;;;;;;;;;;5054921;28;20021;-66
2022/03/14 07:44:55;;;;;;;30.15;20.05;;;;;;;;;;5054766;28;20029;-66
2022/03/14 07:47:21;;;;;;;27.23;18.15;;;;;;;;;;5054713;28;20027;-66
2022/03/14 07:49:47;;;;;;;32.10;19.65;;;;;;;;;;5054691;28;20104;-66
2022/03/14 07:52:13;;;;;;;29.55;19.05;;;;;;;;;;5054335;28;20511;-66
2022/03/14 07:54:39;;;;;;;28.40;19.13;;;;;;;;;;5053869;28;20036;-66
2022/03/14 07:57:05;;;;;;;28.20;18.67;;;;;;;;;;5052494;28;20045;-66
2022/03/14 07:59:31;;;;;;;26.63;18.05;;;;;;;;;;5052531;28;20056;-66
2022/03/14 08:01:57;;;;;;;23.25;15.77;;;;;;;;;;5053226;28;20021;-66
2022/03/14 08:04:23;;;;;;;120.47;19.90;;;;;;;;;;5053898;28;20029;-65
2022/03/14 08:06:49;;;;;;;136.80;24.60;;;;;;;;;;5054238;28;20031;-67
2022/03/14 08:09:16;;;;;;;120.43;19.95;;;;;;;;;;5054014;28;20029;-66
2022/03/14 08:11:42;;;;;;;116.38;25.10;;;;;;;;;;5053824;28;20021;-69
2022/03/14 08:14:08;;;;;;;86.10;18.60;;;;;;;;;;5052103;28;20033;-69
2022/03/14 08:16:35;;;;;;;94.38;20.48;;;;;;;;;;5053812;28;20055;-70
2022/03/14 08:19:01;;;;;;;85.20;19.05;;;;;;;;;;5054037;28;20021;-67
2022/03/14 08:21:27;;;;;;;60.45;15.63;;;;;;;;;;5052539;28;20117;-67
2022/03/14 08:23:53;;;;;;;52.90;14.75;;;;;;;;;;5053853;28;20039;-68
2022/03/14 08:26:21;;;;;;;62.20;14.82;;;;;;;;;;5052753;28;20587;-65
2022/03/14 08:28:47;;;;;;;34.85;12.52;;;;;;;;;;5051391;28;20025;-63
2022/03/14 08:31:17;;;;;;;52.13;13.60;;;;;;;;;;5053333;28;20024;-62
2022/03/14 08:33:44;;;;;;;46.05;14.00;;;;;;;;;;5054054;28;20025;-65
2022/03/14 08:36:10;;;;;;;44.65;14.07;;;;;;;;;;5054028;28;20473;-65
2022/03/14 08:38:38;;;;;;;38.60;12.10;;;;;;;;;;5052536;28;20032;-66
2022/03/14 08:41:04;;;;;;;29.75;11.55;;;;;;;;;;5052254;28;20028;-65
2022/03/14 08:43:30;;;;;;;31.08;11.70;;;;;;;;;;5053811;28;20033;-63
2022/03/14 08:45:56;;;;;;;34.42;12.10;;;;;;;;;;5053379;28;20024;-65
2022/03/14 08:48:22;;;;;;;40.30;10.13;;;;;;;;;;5053661;28;20074;-64
2022/03/14 08:50:48;;;;;;;33.30;11.55;;;;;;;;;;5053753;28;20151;-63
2022/03/14 08:53:16;;;;;;;40.05;12.20;;;;;;;;;;5053336;28;20028;-64
2022/03/14 08:55:42;;;;;;;33.30;11.15;;;;;;;;;;5052828;28;20634;-63
2022/03/14 08:58:08;;;;;;;35.17;10.65;;;;;;;;;;5053735;28;20147;-65
2022/03/14 09:00:36;;;;;;;27.73;9.30;;;;;;;;;;5053283;28;20059;-62
2022/03/14 09:03:02;;;;;;;23.88;9.32;;;;;;;;;;5053466;28;20021;-65
2022/03/14 09:05:28;;;;;;;28.48;10.13;;;;;;;;;;5053423;28;20021;-65
2022/03/14 09:07:55;;;;;;;23.75;9.43;;;;;;;;;;5052825;28;20071;-67
2022/03/14 09:10:21;;;;;;;18.77;8.40;;;;;;;;;;5051550;28;20020;-61
2022/03/14 09:12:48;;;;;;;21.52;9.27;;;;;;;;;;5051183;28;20502;-67
2022/03/14 09:15:14;;;;;;;25.70;8.65;;;;;;;;;;5051795;28;20045;-67
2022/03/14 09:17:59;;;;;;;16.08;7.35;;;;;;;;;;5051769;28;20053;-68
2022/03/14 09:20:25;;;;;;;20.88;7.75;;;;;;;;;;5051784;28;20032;-67
2022/03/14 09:22:51;;;;;;;14.80;6.60;;;;;;;;;;5052489;28;20013;-68
2022/03/14 09:25:19;;;;;;;20.23;7.03;;;;;;;;;;5051541;28;20033;-65
2022/03/14 09:27:45;;;;;;;16.38;6.90;;;;;;;;;;5052968;28;20104;-65
2022/03/14 09:30:12;;;;;;;17.77;7.30;;;;;;;;;;5051464;28;20067;-66
2022/03/14 09:32:38;;;;;;;17.75;6.78;;;;;;;;;;5052801;28;20032;-67
2022/03/14 09:35:05;;;;;;;18.30;8.23;;;;;;;;;;5052405;28;20112;-67
2022/03/14 09:37:31;;;;;;;18.83;7.80;;;;;;;;;;5052689;28;20027;-67
2022/03/14 09:39:57;;;;;;;18.30;7.90;;;;;;;;;;5052678;28;20025;-67
2022/03/14 09:42:24;;;;;;;13.27;7.03;;;;;;;;;;5052702;28;20017;-66
2022/03/14 09:44:54;;;;;;;16.33;7.43;;;;;;;;;;5052328;28;20070;-66
2022/03/14 09:47:23;;;;;;;16.58;6.88;;;;;;;;;;5052504;28;20059;-64
2022/03/14 09:49:49;;;;;;;18.50;7.05;;;;;;;;;;5052434;28;20640;-68
2022/03/14 09:52:16;;;;;;;15.68;6.78;;;;;;;;;;5052820;28;20168;-68
2022/03/14 09:54:42;;;;;;;12.88;7.07;;;;;;;;;;5053575;28;20555;-65
2022/03/14 09:57:09;;;;;;;12.18;7.05;;;;;;;;;;5050598;28;20055;-65
2022/03/14 09:59:36;;;;;;;12.43;6.43;;;;;;;;;;5052242;28;20028;-65
2022/03/14 10:02:02;;;;;;;14.50;6.43;;;;;;;;;;5051605;28;20025;-64
2022/03/14 10:04:28;;;;;;;10.88;5.28;;;;;;;;;;5067630;28;20064;-68
2022/03/14 10:06:54;;;;;;;11.77;5.70;;;;;;;;;;5052258;28;20025;-69
2022/03/14 10:09:20;;;;;;;12.65;5.47;;;;;;;;;;5052247;28;20501;-64
2022/03/14 10:11:46;;;;;;;14.80;5.70;;;;;;;;;;5052091;28;20029;-64
2022/03/14 10:14:17;;;;;;;13.02;6.18;;;;;;;;;;5052174;28;20028;-67
2022/03/14 10:16:44;;;;;;;8.65;4.90;;;;;;;;;;5043101;28;20063;-63
2022/03/14 10:19:12;;;;;;;9.65;5.15;;;;;;;;;;5032157;28;20072;-69
2022/03/14 10:21:39;;;;;;;8.60;4.82;;;;;;;;;;5032304;28;20014;-67
2022/03/14 10:24:06;;;;;;;11.50;5.82;;;;;;;;;;5032182;28;20029;-69
2022/03/14 10:26:33;;;;;;;10.18;5.88;;;;;;;;;;5032201;28;20108;-66
2022/03/14 10:29:00;;;;;;;10.25;5.15;;;;;;;;;;5032067;28;20083;-66
2022/03/14 10:31:30;;;;;;;9.32;4.50;;;;;;;;;;5031823;28;20026;-66
2022/03/14 10:34:07;;;;;;;8.48;4.45;;;;;;;;;;5047092;28;20498;-67
2022/03/14 10:36:46;;;;;;;8.27;4.60;;;;;;;;;;5047169;28;20365;-66
2022/03/14 10:39:22;;;;;;;8.52;4.60;;;;;;;;;;5031972;28;20026;-70
2022/03/14 10:42:08;;;;;;;9.05;4.82;;;;;;;;;;5031579;28;20510;-69
2022/03/14 10:44:35;;;;;;;8.13;4.00;;;;;;;;;;5031602;28;20105;-66
2022/03/14 10:47:02;;;;;;;8.23;4.57;;;;;;;;;;5031738;28;20047;-64
2022/03/14 10:49:29;;;;;;;7.53;4.03;;;;;;;;;;5031748;28;20022;-65
2022/03/14 10:51:59;;;;;;;7.25;4.07;;;;;;;;;;5031786;28;20067;-66
2022/03/14 10:54:26;;;;;;;7.65;4.25;;;;;;;;;;5031450;28;20040;-67
2022/03/14 10:57:02;;;;;;;6.82;4.30;;;;;;;;;;5031753;28;20103;-66
2022/03/14 10:59:34;;;;;;;7.03;4.03;;;;;;;;;;5046880;28;20041;-65
2022/03/14 11:02:01;;;;;;;7.43;4.32;;;;;;;;;;5031565;28;20025;-66
2022/03/14 11:04:27;;;;;;;8.52;4.15;;;;;;;;;;5031467;28;20017;-61
2022/03/14 11:07:02;;;;;;;7.97;3.72;;;;;;;;;;5031545;28;20485;-68
2022/03/14 11:09:48;;;;;;;7.72;3.90;;;;;;;;;;5033476;28;20453;-64
2022/03/14 11:12:21;;;;;;;9.25;4.40;;;;;;;;;;5035497;28;20030;-61
2022/03/14 11:14:54;;;;;;;7.00;3.97;;;;;;;;;;5035466;28;20044;-63
2022/03/14 11:17:21;;;;;;;7.13;3.90;;;;;;;;;;5035254;28;20028;-65
2022/03/14 11:19:48;;;;;;;6.65;3.67;;;;;;;;;;5050851;28;20111;-67
2022/03/14 11:22:15;;;;;;;8.40;3.83;;;;;;;;;;5035259;28;20018;-66
2022/03/14 11:24:43;;;;;;;7.30;3.95;;;;;;;;;;5035355;28;20075;-68
2022/03/14 11:27:18;;;;;;;5.95;3.38;;;;;;;;;;5035213;28;20097;-68
2022/03/14 11:29:45;;;;;;;6.22;3.55;;;;;;;;;;5035261;28;20117;-69
2022/03/14 11:32:11;;;;;;;7.82;4.32;;;;;;;;;;5035353;28;20468;-68
2022/03/14 11:34:37;;;;;;;6.10;3.60;;;;;;;;;;5034978;28;20033;-68
2022/03/14 11:37:03;;;;;;;8.55;3.70;;;;;;;;;;5035031;28;20032;-69
2022/03/14 11:39:31;;;;;;;7.90;3.63;;;;;;;;;;5035013;28;20029;-69
2022/03/14 11:41:59;;;;;;;6.65;3.88;;;;;;;;;;5034887;28;20017;-69
2022/03/14 11:44:26;;;;;;;6.60;3.50;;;;;;;;;;5034784;28;20026;-69
2022/03/14 11:46:56;;;;;;;6.60;3.05;;;;;;;;;;5034745;28;20243;-67
2022/03/14 11:49:25;;;;;;;6.65;3.47;;;;;;;;;;5035048;28;20036;-69
2022/03/14 11:51:51;;;;;;;6.40;3.25;;;;;;;;;;5035100;28;20104;-68
2022/03/14 11:54:17;;;;;;;6.82;3.38;;;;;;;;;;5034701;28;20179;-69
2022/03/14 11:56:56;;;;;;;6.00;3.20;;;;;;;;;;5034731;28;20050;-68
2022/03/14 11:59:26;;;;;;;5.43;2.80;;;;;;;;;;5034640;28;20022;-66
2022/03/14 12:01:55;;;;;;;6.13;2.83;;;;;;;;;;5039969;28;20056;-68
2022/03/14 12:04:29;;;;;;;6.13;3.03;;;;;;;;;;5054457;28;20044;-66
2022/03/14 12:06:55;;;;;;;5.45;2.97;;;;;;;;;;5054561;28;20132;-69
2022/03/14 12:09:27;;;;;;;5.45;3.03;;;;;;;;;;5054513;28;20028;-69
2022/03/14 12:11:53;;;;;;;6.38;2.67;;;;;;;;;;5054346;28;20048;-69
2022/03/14 12:14:38;;;;;;;5.63;2.60;;;;;;;;;;5054289;28;20114;-68
2022/03/14 12:17:22;;;;;;;4.95;2.60;;;;;;;;;;5042121;28;20029;-69
2022/03/14 12:19:49;;;;;;;6.03;3.00;;;;;;;;;;5034079;28;20144;-68
2022/03/14 12:22:33;;;;;;;5.32;2.83;;;;;;;;;;5033632;28;20032;-68
2022/03/14 12:25:00;;;;;;;5.22;2.85;;;;;;;;;;5034163;28;20021;-67
2022/03/14 12:27:26;;;;;;;8.10;3.15;;;;;;;;;;5034450;28;20026;-68
2022/03/14 12:29:53;;;;;;;7.45;2.90;;;;;;;;;;5034385;28;20017;-68
2022/03/14 12:32:22;;;;;;;6.35;3.08;;;;;;;;;;5034167;28;20068;-67
2022/03/14 12:34:57;;;;;;;6.03;2.28;;;;;;;;;;5034145;28;20033;-68
2022/03/14 12:37:25;;;;;;;5.85;3.00;;;;;;;;;;5033995;28;20379;-69
2022/03/14 12:39:52;;;;;;;5.10;2.80;;;;;;;;;;5034101;28;20022;-69
2022/03/14 12:42:22;;;;;;;8.48;2.75;;;;;;;;;;5034136;28;20027;-69
2022/03/14 12:45:08;;;;;;;6.28;2.95;;;;;;;;;;5049276;28;20017;-68
2022/03/14 12:47:41;;;;;;;4.78;2.78;;;;;;;;;;5034070;28;20447;-64
2022/03/14 12:50:07;;;;;;;5.50;3.15;;;;;;;;;;5048926;28;20025;-68
2022/03/14 12:52:53;;;;;;;4.75;2.90;;;;;;;;;;5033656;28;20017;-68
2022/03/14 12:55:19;;;;;;;5.55;2.60;;;;;;;;;;5033596;28;20049;-64
2022/03/14 12:57:52;;;;;;;6.07;3.10;;;;;;;;;;5033770;28;20017;-67
2022/03/14 13:00:18;;;;;;;5.93;3.08;;;;;;;;;;5033906;28;20021;-69
2022/03/14 13:02:44;;;;;;;7.75;3.60;;;;;;;;;;5033677;28;20052;-64
2022/03/14 13:05:11;;;;;;;6.20;3.30;;;;;;;;;;5033615;28;20053;-64
2022/03/14 13:07:37;;;;;;;6.85;3.17;;;;;;;;;;5033594;28;20021;-66
2022/03/14 13:10:03;;;;;;;6.20;3.03;;;;;;;;;;5033414;28;20056;-67
2022/03/14 13:12:29;;;;;;;5.45;2.80;;;;;;;;;;5033354;28;20025;-64
2022/03/14 13:15:21;;;;;;;5.55;3.08;;;;;;;;;;5033168;28;20420;-65
2022/03/14 13:17:49;;;;;;;5.47;2.80;;;;;;;;;;5030223;28;20120;-67
2022/03/14 13:20:21;;;;;;;6.53;3.20;;;;;;;;;;5033143;28;20030;-68
2022/03/14 13:22:47;;;;;;;4.97;2.65;;;;;;;;;;5033078;28;20416;-67
2022/03/14 13:25:28;;;;;;;5.88;3.13;;;;;;;;;;5033139;28;20103;-69
2022/03/14 13:27:54;;;;;;;5.32;2.97;;;;;;;;;;5032917;28;20025;-68
2022/03/14 13:30:21;;;;;;;7.00;2.90;;;;;;;;;;5033216;28;20017;-69
2022/03/14 13:32:47;;;;;;;6.30;2.95;;;;;;;;;;5033033;28;20021;-69
2022/03/14 13:35:13;;;;;;;6.32;3.00;;;;;;;;;;5048067;28;20065;-68
2022/03/14 13:37:43;;;;;;;4.32;2.60;;;;;;;;;;5033382;28;20376;-69
2022/03/14 13:40:23;;;;;;;5.65;3.13;;;;;;;;;;5032943;28;20017;-68
2022/03/14 13:42:50;;;;;;;5.00;2.58;;;;;;;;;;5032658;28;20017;-68
2022/03/14 13:45:22;;;;;;;5.88;3.03;;;;;;;;;;5032547;28;20029;-67
2022/03/14 13:47:53;;;;;;;4.97;2.42;;;;;;;;;;5032742;28;20049;-69
2022/03/14 13:50:19;;;;;;;4.85;2.90;;;;;;;;;;5032744;28;20108;-67
2022/03/14 13:52:52;;;;;;;5.40;2.67;;;;;;;;;;5032915;28;20057;-68
2022/03/14 13:55:18;;;;;;;5.97;2.55;;;;;;;;;;5032494;28;20058;-69
2022/03/14 13:57:47;;;;;;;5.95;2.90;;;;;;;;;;5032427;28;20025;-69
2022/03/14 14:00:14;;;;;;;6.05;2.90;;;;;;;;;;5032507;28;20469;-65
2022/03/14 14:02:41;;;;;;;4.88;2.58;;;;;;;;;;5043473;28;20055;-68
2022/03/14 14:05:08;;;;;;;7.15;2.70;;;;;;;;;;5052018;28;20029;-68
2022/03/14 14:07:34;;;;;;;5.00;2.63;;;;;;;;;;5052028;28;20020;-68
2022/03/14 14:10:01;;;;;;;5.03;2.33;;;;;;;;;;5052451;28;20028;-68
2022/03/14 14:12:31;;;;;;;5.15;2.35;;;;;;;;;;5052241;28;20021;-67
2022/03/14 14:14:57;;;;;;;4.82;2.70;;;;;;;;;;5067355;28;20044;-69
2022/03/14 14:17:24;;;;;;;5.10;2.70;;;;;;;;;;5037697;28;20025;-65
2022/03/14 14:20:09;;;;;;;4.40;2.25;;;;;;;;;;5032444;28;20693;-69
2022/03/14 14:22:42;;;;;;;4.72;2.22;;;;;;;;;;5032121;28;20022;-68
2022/03/14 14:25:14;;;;;;;5.32;2.47;;;;;;;;;;5031912;28;20053;-68
2022/03/14 14:28:00;;;;;;;5.57;2.58;;;;;;;;;;5047633;28;20037;-67
2022/03/14 14:30:37;;;;;;;5.65;2.90;;;;;;;;;;5047273;28;20030;-67
2022/03/14 14:33:07;;;;;;;5.18;2.80;;;;;;;;;;5031913;28;20022;-66
2022/03/14 14:35:34;;;;;;;4.47;2.20;;;;;;;;;;5031955;28;20533;-69